Time;durP1;ratioP1;P1;durP2;ratioP2;P2;SDS_P1;SDS_P2;PMS_P1;PMS_P2;Temp;Humidity;BMP_temperature;BMP_pressure;BME280_temperature;BME280_humidity;BME280_pressure;Samples;Min_cycle;Max_cycle;Signal;HPM_P1;HPM_P2
2022/01/14 00:01:18;;;;;;;145.80;31.70;;;-2.80;99.90;;;;;;5033447;28;20500;-80
2022/01/14 00:03:44;;;;;;;103.50;32.00;;;-2.90;99.90;;;;;;5033406;28;20022;-80
2022/01/14 00:06:12;;;;;;;100.23;32.80;;;-2.90;99.90;;;;;;5033565;28;20024;-80
2022/01/14 00:08:38;;;;;;;138.03;31.50;;;-3.00;99.90;;;;;;5033063;28;20044;-80
2022/01/14 00:11:04;;;;;;;130.70;31.00;;;-2.80;99.90;;;;;;5033248;28;20022;-80
2022/01/14 00:16:14;;;;;;;181.80;34.83;;;-2.90;99.90;;;;;;5028759;28;20026;-81
2022/01/14 00:18:39;;;;;;;119.27;32.63;;;-2.90;99.90;;;;;;5031899;28;20022;-83
2022/01/14 00:21:05;;;;;;;71.00;28.33;;;-2.90;99.90;;;;;;5033146;28;20486;-82
2022/01/14 00:23:35;;;;;;;85.77;32.33;;;-2.90;99.90;;;;;;5033603;28;20100;-83
2022/01/14 00:31:42;;;;;;;99.60;31.77;;;-3.00;99.90;;;;;;5036811;28;20595;-75
2022/01/14 00:34:09;;;;;;;117.27;35.00;;;-3.00;99.90;;;;;;5036564;28;20080;-75
2022/01/14 00:36:35;;;;;;;172.67;36.27;;;-3.00;99.90;;;;;;5035222;28;20493;-74
2022/01/14 00:39:01;;;;;;;82.43;31.70;;;-3.10;99.90;;;;;;5035280;28;20082;-74
2022/01/14 00:41:26;;;;;;;97.10;35.33;;;-3.00;99.90;;;;;;5036795;28;20083;-74
2022/01/14 00:43:59;;;;;;;129.43;34.60;;;-3.10;99.90;;;;;;5037213;28;20139;-75
2022/01/14 00:46:25;;;;;;;180.67;37.70;;;-3.10;99.90;;;;;;5036708;28;20021;-75
2022/01/14 00:48:50;;;;;;;152.83;36.40;;;-3.10;99.90;;;;;;5036533;28;20037;-76
2022/01/14 00:51:16;;;;;;;129.57;32.30;;;-3.10;99.90;;;;;;5036679;28;20091;-76
2022/01/14 00:53:41;;;;;;;122.03;34.33;;;-3.20;99.90;;;;;;5036268;28;20021;-76
2022/01/14 00:56:20;;;;;;;119.43;33.70;;;-3.20;99.90;;;;;;5034910;28;20018;-76
2022/01/14 01:01:30;;;;;;;140.37;32.03;;;-3.20;99.90;;;;;;5036334;28;20040;-74
2022/01/14 01:03:56;;;;;;;125.43;33.13;;;-3.20;99.90;;;;;;5036287;28;20413;-74
2022/01/14 01:06:21;;;;;;;101.30;33.77;;;-3.20;99.90;;;;;;5034661;28;20489;-75
2022/01/14 01:08:49;;;;;;;137.20;36.53;;;-3.30;99.90;;;;;;5036021;28;20075;-75
2022/01/14 01:11:18;;;;;;;89.57;33.97;;;-3.20;99.90;;;;;;5036228;28;20017;-75
2022/01/14 01:13:49;;;;;;;77.77;31.07;;;-3.30;99.90;;;;;;5036198;28;20050;-74
2022/01/14 01:16:15;;;;;;;81.90;32.73;;;-3.30;99.90;;;;;;5035668;28;20040;-75
2022/01/14 01:18:40;;;;;;;85.33;31.43;;;-3.30;99.90;;;;;;5035433;28;20466;-76
2022/01/14 01:21:06;;;;;;;77.73;32.77;;;-3.30;99.90;;;;;;5035201;28;20021;-76
2022/01/14 01:23:32;;;;;;;74.57;29.63;;;-3.40;99.90;;;;;;5035161;28;20045;-76
2022/01/14 01:26:08;;;;;;;76.93;32.07;;;-3.40;99.90;;;;;;5033648;28;20033;-74
2022/01/14 01:28:40;;;;;;;105.23;34.37;;;-3.40;99.90;;;;;;5034817;28;20108;-82
2022/01/14 01:31:34;;;;;;;95.20;32.37;;;-3.40;99.90;;;;;;5031756;28;20386;-82
2022/01/14 01:33:52;;;;;;;84.43;34.83;;;-3.40;99.90;;;;;;5031971;28;20136;-82
2022/01/14 01:36:18;;;;;;;103.27;35.13;;;-3.40;99.90;;;;;;5030321;28;20148;-82
2022/01/14 01:38:43;;;;;;;94.83;35.03;;;-3.40;99.90;;;;;;5031660;28;20037;-82
2022/01/14 01:41:12;;;;;;;89.27;33.87;;;-3.40;99.90;;;;;;5030194;28;20509;-82
2022/01/14 01:43:39;;;;;;;146.33;37.93;;;-3.40;99.90;;;;;;5030457;28;20030;-82
2022/01/14 01:46:04;;;;;;;82.13;31.70;;;-3.40;99.90;;;;;;5031273;28;20033;-83
2022/01/14 01:48:30;;;;;;;76.33;32.30;;;-3.40;99.90;;;;;;5031437;28;20033;-82
2022/01/14 01:50:58;;;;;;;107.87;30.80;;;-3.30;99.90;;;;;;5031273;28;20040;-83
2022/01/14 01:53:23;;;;;;;90.13;30.17;;;-3.30;99.90;;;;;;5031591;28;20022;-83
2022/01/14 01:55:49;;;;;;;91.20;32.10;;;-3.40;99.90;;;;;;5031870;28;20087;-83
2022/01/14 01:58:14;;;;;;;79.43;31.47;;;-3.40;99.90;;;;;;5031499;28;20029;-82
2022/01/14 02:00:40;;;;;;;115.03;32.27;;;-3.40;99.90;;;;;;5031247;28;20042;-82
2022/01/14 02:03:06;;;;;;;94.63;32.87;;;-3.40;99.90;;;;;;5031073;28;20038;-82
2022/01/14 02:05:32;;;;;;;131.67;34.13;;;-3.50;99.90;;;;;;5031192;28;20151;-82
2022/01/14 02:07:58;;;;;;;105.37;33.77;;;-3.50;99.90;;;;;;5031114;28;20028;-82
2022/01/14 02:10:25;;;;;;;173.77;36.97;;;-3.50;99.90;;;;;;5030838;28;20481;-83
2022/01/14 02:12:53;;;;;;;81.87;31.17;;;-3.50;99.90;;;;;;5031241;28;20430;-82
2022/01/14 02:15:41;;;;;;;97.47;32.63;;;-3.50;99.90;;;;;;5031045;28;20033;-82
2022/01/14 02:18:27;;;;;;;73.43;31.03;;;-3.50;99.90;;;;;;5020952;28;20033;-82
2022/01/14 02:23:45;;;;;;;167.13;31.37;;;-3.60;99.90;;;;;;5030607;28;20133;-82
2022/01/14 02:26:11;;;;;;;69.10;28.90;;;-3.60;99.90;;;;;;5030423;28;20032;-82
2022/01/14 02:28:37;;;;;;;85.70;30.50;;;-3.60;99.90;;;;;;5031040;28;20033;-82
2022/01/14 02:31:02;;;;;;;82.77;30.23;;;-3.70;99.90;;;;;;5030586;28;20029;-82
2022/01/14 02:33:28;;;;;;;77.73;28.53;;;-3.60;99.90;;;;;;5029355;28;20053;-80
2022/01/14 02:35:55;;;;;;;74.17;30.17;;;-3.70;99.90;;;;;;5030659;28;20037;-80
2022/01/14 02:38:21;;;;;;;102.27;30.30;;;-3.70;99.90;;;;;;5030721;28;20414;-81
2022/01/14 02:40:47;;;;;;;80.87;27.63;;;-3.70;99.90;;;;;;5030529;28;20068;-80
2022/01/14 02:43:16;;;;;;;105.63;28.60;;;-3.80;99.90;;;;;;5030284;28;20494;-80
2022/01/14 02:45:57;;;;;;;64.37;29.40;;;-3.80;99.90;;;;;;5028892;28;20478;-80
2022/01/14 02:48:29;;;;;;;63.13;27.13;;;-3.80;99.90;;;;;;5030463;28;20025;-80
2022/01/14 02:51:10;;;;;;;104.83;28.40;;;-3.80;99.90;;;;;;5029163;28;20033;-81
2022/01/14 02:56:04;;;;;;;85.57;30.17;;;-3.80;99.90;;;;;;5030340;28;20200;-81
2022/01/14 02:58:32;;;;;;;87.67;32.20;;;-3.80;99.90;;;;;;5029369;28;20025;-80
2022/01/14 03:01:00;;;;;;;149.47;32.30;;;-3.80;99.90;;;;;;5030209;28;20082;-81
2022/01/14 03:03:29;;;;;;;91.03;29.33;;;-3.80;99.90;;;;;;5029058;28;20116;-81
2022/01/14 03:05:55;;;;;;;81.93;31.97;;;-3.80;99.90;;;;;;5030692;28;20129;-81
2022/01/14 03:08:21;;;;;;;93.27;31.37;;;-3.80;99.90;;;;;;5030263;28;20132;-81
2022/01/14 03:10:52;;;;;;;151.57;35.77;;;-3.80;99.90;;;;;;5030328;28;20032;-81
2022/01/14 03:13:19;;;;;;;93.37;34.57;;;-3.80;99.90;;;;;;5028969;28;20069;-81
2022/01/14 03:15:45;;;;;;;82.53;33.20;;;-3.70;99.90;;;;;;5026974;28;20064;-80
2022/01/14 03:18:10;;;;;;;82.57;32.77;;;-3.80;99.90;;;;;;5018703;28;20088;-80
2022/01/14 03:20:48;;;;;;;80.13;32.43;;;-3.80;99.90;;;;;;5010719;28;20029;-80
2022/01/14 03:23:15;;;;;;;98.60;32.60;;;-3.70;99.90;;;;;;5023041;28;20092;-81
2022/01/14 03:25:51;;;;;;;112.43;34.03;;;-3.80;99.90;;;;;;5030169;28;20067;-80
2022/01/14 03:28:18;;;;;;;98.70;32.53;;;-3.80;99.90;;;;;;5028881;28;20075;-80
2022/01/14 03:30:44;;;;;;;88.27;33.50;;;-3.80;99.90;;;;;;5028496;28;20068;-80
2022/01/14 03:33:10;;;;;;;90.47;32.97;;;-3.80;99.90;;;;;;5030093;28;20097;-81
2022/01/14 03:35:36;;;;;;;87.20;31.90;;;-3.80;99.90;;;;;;5030019;28;20026;-81
2022/01/14 03:38:02;;;;;;;138.93;31.70;;;-3.80;99.90;;;;;;5029693;28;20506;-81
2022/01/14 03:40:28;;;;;;;76.07;29.73;;;-3.80;99.90;;;;;;5029703;28;20040;-81
2022/01/14 03:42:53;;;;;;;92.53;28.63;;;-3.90;99.90;;;;;;5029815;28;20017;-81
2022/01/14 03:45:19;;;;;;;72.30;27.87;;;-3.90;99.90;;;;;;5029916;28;20489;-81
2022/01/14 03:47:44;;;;;;;67.67;28.97;;;-3.90;99.90;;;;;;5029869;28;20021;-81
2022/01/14 03:50:10;;;;;;;84.97;31.17;;;-3.90;99.90;;;;;;5029882;28;20362;-81
2022/01/14 03:52:36;;;;;;;98.57;31.40;;;-3.90;99.90;;;;;;5028023;28;20155;-81
2022/01/14 03:55:01;;;;;;;68.83;30.47;;;-4.00;99.90;;;;;;5029925;28;20029;-81
2022/01/14 03:57:27;;;;;;;77.50;30.93;;;-4.00;99.90;;;;;;5029515;28;20104;-81
2022/01/14 03:59:52;;;;;;;73.00;31.63;;;-4.00;99.90;;;;;;5029971;28;20036;-81
2022/01/14 04:02:18;;;;;;;122.37;32.03;;;-4.00;99.90;;;;;;5029553;28;20033;-80
2022/01/14 04:04:43;;;;;;;84.57;34.10;;;-4.00;99.90;;;;;;5029943;28;20018;-80
2022/01/14 04:07:09;;;;;;;96.77;35.07;;;-4.00;99.90;;;;;;5029960;28;20236;-81
2022/01/14 04:09:37;;;;;;;102.13;33.03;;;-4.00;99.90;;;;;;5030614;28;20018;-80
2022/01/14 04:12:04;;;;;;;100.53;34.13;;;-4.00;99.90;;;;;;5033029;28;20635;-80
2022/01/14 04:16:59;;;;;;;89.17;35.33;;;-4.00;99.90;;;;;;5027264;28;20029;-80
2022/01/14 04:19:26;;;;;;;85.93;33.80;;;-4.00;99.90;;;;;;5017590;28;20033;-80
2022/01/14 04:21:52;;;;;;;84.17;33.80;;;-4.00;99.90;;;;;;5013279;28;20042;-80
2022/01/14 04:24:17;;;;;;;82.07;33.37;;;-4.00;99.90;;;;;;5013495;28;20092;-80
2022/01/14 04:26:43;;;;;;;84.83;33.17;;;-4.00;99.90;;;;;;5025828;28;20065;-80
2022/01/14 04:29:08;;;;;;;82.87;32.83;;;-4.00;99.90;;;;;;5033019;28;20033;-81
2022/01/14 04:31:34;;;;;;;78.27;32.63;;;-4.00;99.90;;;;;;5032831;28;20030;-81
2022/01/14 04:33:59;;;;;;;74.73;31.80;;;-4.00;99.90;;;;;;5032942;28;20029;-80
2022/01/14 04:36:25;;;;;;;84.83;33.57;;;-4.00;99.90;;;;;;5032770;28;20095;-80
2022/01/14 04:38:50;;;;;;;81.23;34.53;;;-4.00;99.90;;;;;;5032702;28;20036;-80
2022/01/14 04:41:16;;;;;;;76.67;31.70;;;-4.00;99.90;;;;;;5031587;28;20021;-81
2022/01/14 04:43:42;;;;;;;76.27;32.50;;;-4.00;99.90;;;;;;5032762;28;20079;-80
2022/01/14 04:48:36;;;;;;;73.93;32.27;;;-4.10;99.90;;;;;;5033027;28;20037;-80
2022/01/14 04:51:05;;;;;;;77.13;33.43;;;-4.10;99.90;;;;;;5032436;28;20029;-80
2022/01/14 04:53:30;;;;;;;70.17;30.83;;;-4.10;99.90;;;;;;5032497;28;20033;-80
2022/01/14 04:55:56;;;;;;;71.63;30.27;;;-4.10;99.90;;;;;;5032584;28;20043;-80
2022/01/14 04:58:26;;;;;;;74.93;31.60;;;-4.10;99.90;;;;;;5032232;28;20080;-80
2022/01/14 05:00:52;;;;;;;77.67;32.07;;;-4.10;99.90;;;;;;5032489;28;20453;-80
2022/01/14 05:03:18;;;;;;;76.30;32.00;;;-4.10;99.90;;;;;;5032355;28;20025;-80
2022/01/14 05:05:47;;;;;;;72.70;30.97;;;-4.10;99.90;;;;;;5032455;28;20463;-80
2022/01/14 05:08:20;;;;;;;77.47;33.20;;;-4.10;99.90;;;;;;5031074;28;20480;-80
2022/01/14 05:13:23;;;;;;;60.53;26.85;;;-4.20;99.90;;;;;;5032978;28;20087;-81
2022/01/14 05:15:48;;;;;;;75.17;30.87;;;-4.20;99.90;;;;;;5029498;28;20072;-80
2022/01/14 05:18:14;;;;;;;74.33;31.80;;;-4.20;99.90;;;;;;5024840;28;20060;-80
2022/01/14 05:20:39;;;;;;;67.37;29.37;;;-4.20;99.90;;;;;;5034620;28;20076;-80
2022/01/14 05:23:05;;;;;;;65.67;29.10;;;-4.20;99.90;;;;;;5034272;28;20022;-80
2022/01/14 05:25:31;;;;;;;73.83;32.30;;;-4.20;99.90;;;;;;5033600;28;20025;-81
2022/01/14 05:27:56;;;;;;;74.70;30.90;;;-4.20;99.90;;;;;;5035141;28;20025;-82
2022/01/14 05:30:22;;;;;;;72.17;31.80;;;-4.20;99.90;;;;;;5035143;28;20100;-81
2022/01/14 05:32:51;;;;;;;73.70;32.93;;;-4.20;99.90;;;;;;5034680;28;20027;-81
2022/01/14 05:35:23;;;;;;;65.93;30.77;;;-4.20;99.90;;;;;;5034627;28;20029;-81
2022/01/14 05:37:50;;;;;;;63.30;29.00;;;-4.20;99.90;;;;;;5034814;28;20026;-81
2022/01/14 05:40:17;;;;;;;64.70;29.90;;;-4.20;99.90;;;;;;5034837;28;20022;-81
2022/01/14 05:42:43;;;;;;;65.00;29.40;;;-4.20;99.90;;;;;;5034283;28;20082;-81
2022/01/14 05:45:11;;;;;;;62.17;27.70;;;-4.20;99.90;;;;;;5034794;28;20022;-81
2022/01/14 05:47:38;;;;;;;58.70;26.83;;;-4.20;99.90;;;;;;5034573;28;20017;-81
2022/01/14 05:50:07;;;;;;;62.10;28.90;;;-4.20;99.90;;;;;;5034250;28;20562;-80
2022/01/14 05:52:33;;;;;;;62.70;28.23;;;-4.20;99.90;;;;;;5033973;28;20419;-81
2022/01/14 05:54:58;;;;;;;63.07;28.93;;;-4.20;99.90;;;;;;5034487;28;20057;-81
2022/01/14 05:57:24;;;;;;;60.13;26.40;;;-4.20;99.90;;;;;;5034647;28;20029;-80
2022/01/14 05:59:49;;;;;;;59.47;26.87;;;-4.20;99.90;;;;;;5032749;28;20036;-80
2022/01/14 06:02:16;;;;;;;57.50;26.97;;;-4.20;99.90;;;;;;5034328;28;20025;-83
2022/01/14 06:04:43;;;;;;;60.27;27.83;;;-4.20;99.90;;;;;;5044938;28;20024;-83
2022/01/14 06:07:12;;;;;;;61.50;28.33;;;-4.20;99.90;;;;;;5080318;23;20456;-84
2022/01/14 06:09:37;;;;;;;64.43;29.40;;;-4.20;99.90;;;;;;5056144;28;20082;-75
2022/01/14 06:12:04;;;;;;;63.47;27.97;;;-4.30;99.90;;;;;;5053050;28;20397;-75
2022/01/14 06:14:29;;;;;;;64.97;29.13;;;-4.20;99.90;;;;;;5050124;28;20036;-75
2022/01/14 06:16:55;;;;;;;63.60;28.33;;;-4.20;99.90;;;;;;5053166;28;20037;-74
2022/01/14 06:19:20;;;;;;;61.83;27.90;;;-4.20;99.90;;;;;;5038350;28;20064;-74
2022/01/14 06:21:47;;;;;;;62.40;28.40;;;-4.20;99.90;;;;;;5043855;28;20068;-75
2022/01/14 06:24:13;;;;;;;56.90;27.90;;;-4.20;99.90;;;;;;5044942;28;20082;-75
2022/01/14 06:26:38;;;;;;;64.23;28.60;;;-4.20;99.90;;;;;;5047725;28;20451;-75
2022/01/14 06:29:04;;;;;;;60.03;27.73;;;-4.20;99.90;;;;;;5046014;28;20021;-75
2022/01/14 06:31:30;;;;;;;65.07;30.10;;;-4.10;99.90;;;;;;5047268;28;20488;-75
2022/01/14 06:33:55;;;;;;;61.20;28.83;;;-4.10;99.90;;;;;;5053371;28;20462;-74
2022/01/14 06:36:21;;;;;;;58.13;28.03;;;-4.10;99.90;;;;;;5053090;28;20036;-75
2022/01/14 06:38:47;;;;;;;60.03;27.57;;;-4.10;99.90;;;;;;5052162;28;20108;-75
2022/01/14 06:41:12;;;;;;;61.70;28.40;;;-4.10;99.90;;;;;;5052500;28;20029;-74
2022/01/14 06:43:38;;;;;;;62.53;28.87;;;-4.10;99.90;;;;;;5052951;28;20033;-75
2022/01/14 06:46:03;;;;;;;59.20;27.47;;;-4.10;99.90;;;;;;5049298;28;20315;-74
2022/01/14 06:48:29;;;;;;;63.80;29.77;;;-4.20;99.90;;;;;;5053220;28;20350;-74
2022/01/14 06:50:55;;;;;;;62.33;28.77;;;-4.20;99.90;;;;;;5053028;28;20036;-75
2022/01/14 06:53:20;;;;;;;62.20;29.10;;;-4.20;99.90;;;;;;5053501;28;20085;-75
2022/01/14 06:55:46;;;;;;;58.23;27.67;;;-4.20;99.90;;;;;;5052936;28;20041;-75
2022/01/14 06:58:11;;;;;;;59.77;26.97;;;-4.20;99.90;;;;;;5053007;28;20362;-75
2022/01/14 07:00:37;;;;;;;56.67;26.43;;;-4.20;99.90;;;;;;5051647;28;20115;-75
2022/01/14 07:03:03;;;;;;;55.83;26.10;;;-4.20;99.90;;;;;;5052688;28;20025;-74
2022/01/14 07:05:28;;;;;;;53.07;25.67;;;-4.20;99.90;;;;;;5051532;28;20033;-74
2022/01/14 07:07:54;;;;;;;52.40;25.50;;;-4.20;99.90;;;;;;5052549;28;20148;-74
2022/01/14 07:10:20;;;;;;;52.27;25.67;;;-4.20;99.90;;;;;;5052636;28;20104;-74
2022/01/14 07:12:45;;;;;;;50.93;24.93;;;-4.20;99.90;;;;;;5052734;28;20021;-82
2022/01/14 07:15:13;;;;;;;52.50;25.43;;;-4.20;99.90;;;;;;5053052;28;20032;-83
2022/01/14 07:17:40;;;;;;;50.47;23.73;;;-4.20;99.90;;;;;;5051484;28;20029;-82
2022/01/14 07:20:11;;;;;;;54.47;25.60;;;-4.20;99.90;;;;;;5052976;28;20047;-83
2022/01/14 07:22:37;;;;;;;55.83;25.57;;;-4.20;99.90;;;;;;5051594;28;20037;-83
2022/01/14 07:25:03;;;;;;;55.30;25.50;;;-4.20;99.90;;;;;;5052198;28;20037;-82
2022/01/14 07:27:29;;;;;;;59.30;28.33;;;-4.10;99.90;;;;;;5052697;28;20033;-82
2022/01/14 07:29:55;;;;;;;63.17;27.30;;;-4.10;99.90;;;;;;5052699;28;20040;-83
2022/01/14 07:32:21;;;;;;;61.03;27.87;;;-4.10;99.90;;;;;;5052580;28;20454;-83
2022/01/14 07:34:48;;;;;;;58.73;27.63;;;-4.10;99.90;;;;;;5053369;28;20124;-83
2022/01/14 07:37:14;;;;;;;65.07;29.63;;;-4.10;99.90;;;;;;5053228;28;20036;-83
2022/01/14 07:39:40;;;;;;;59.40;28.23;;;-4.00;99.90;;;;;;5053255;28;20415;-83
2022/01/14 07:42:06;;;;;;;55.77;26.47;;;-4.00;99.90;;;;;;5051741;28;20025;-82
2022/01/14 07:44:32;;;;;;;59.20;27.27;;;-4.00;99.90;;;;;;5054419;28;20032;-82
2022/01/14 07:46:58;;;;;;;55.73;25.23;;;-3.90;99.90;;;;;;5056680;28;20120;-82
2022/01/14 07:49:23;;;;;;;54.77;25.83;;;-3.90;99.90;;;;;;5057315;28;20029;-83
2022/01/14 07:51:49;;;;;;;59.83;26.93;;;-3.90;99.90;;;;;;5058905;28;20036;-83
2022/01/14 07:54:14;;;;;;;55.00;25.50;;;-3.80;99.90;;;;;;5057596;28;20040;-83
2022/01/14 07:56:45;;;;;;;58.93;26.10;;;-3.80;99.90;;;;;;5055995;28;20033;-83
2022/01/14 07:59:13;;;;;;;60.87;26.90;;;-3.70;99.90;;;;;;5055518;28;20078;-83
2022/01/14 08:01:40;;;;;;;60.93;26.67;;;-3.70;99.90;;;;;;5056230;28;20107;-83
2022/01/14 08:04:06;;;;;;;56.40;26.07;;;-3.60;99.90;;;;;;5057001;28;20110;-83
2022/01/14 08:06:34;;;;;;;56.80;26.83;;;-3.50;99.90;;;;;;5057100;28;20425;-83
2022/01/14 08:09:00;;;;;;;53.67;25.77;;;-3.40;99.90;;;;;;5056670;28;20098;-83
2022/01/14 08:11:26;;;;;;;55.97;26.73;;;-3.40;99.90;;;;;;5056885;28;20036;-84
2022/01/14 08:13:51;;;;;;;53.13;25.80;;;-3.30;99.90;;;;;;5056647;28;20444;-84
2022/01/14 08:16:17;;;;;;;48.73;23.70;;;-3.20;99.90;;;;;;5056790;28;20059;-84
2022/01/14 08:18:43;;;;;;;53.37;24.37;;;-3.20;99.90;;;;;;5056801;28;20109;-84
2022/01/14 08:21:09;;;;;;;54.73;26.80;;;-3.10;99.90;;;;;;5056919;28;20080;-84
2022/01/14 08:23:34;;;;;;;54.87;26.63;;;-3.00;99.90;;;;;;5055417;28;20112;-84
2022/01/14 08:26:00;;;;;;;48.93;24.90;;;-2.90;99.90;;;;;;5056996;28;20086;-84
2022/01/14 08:28:26;;;;;;;51.83;26.23;;;-2.80;99.90;;;;;;5056719;28;20057;-84
2022/01/14 08:30:52;;;;;;;56.23;27.90;;;-2.70;99.90;;;;;;5057367;28;20368;-84
2022/01/14 08:33:18;;;;;;;50.73;25.00;;;-2.70;99.90;;;;;;5056842;28;20028;-84
2022/01/14 08:35:45;;;;;;;54.27;27.00;;;-2.60;99.90;;;;;;5056998;28;20074;-84
2022/01/14 08:38:10;;;;;;;47.17;25.63;;;-2.40;99.90;;;;;;5055537;28;20385;-83
2022/01/14 08:40:36;;;;;;;49.20;24.50;;;-2.30;99.90;;;;;;5056641;28;20124;-84
2022/01/14 08:43:03;;;;;;;48.73;25.47;;;-2.20;99.90;;;;;;5056718;28;20040;-84
2022/01/14 08:45:28;;;;;;;56.57;25.90;;;-2.10;99.90;;;;;;5035533;28;20052;-84
2022/01/14 08:47:55;;;;;;;47.43;24.23;;;-2.00;99.90;;;;;;5040589;28;20059;-83
2022/01/14 08:50:27;;;;;;;52.63;25.43;;;-1.90;99.90;;;;;;5056461;28;20029;-84
2022/01/14 08:52:53;;;;;;;50.00;24.80;;;-1.80;99.90;;;;;;5054811;28;20036;-83
2022/01/14 08:55:20;;;;;;;49.43;24.83;;;-1.70;99.90;;;;;;5056334;28;20029;-84
2022/01/14 08:57:46;;;;;;;46.50;24.77;;;-1.70;99.90;;;;;;5055423;28;20036;-84
2022/01/14 09:00:15;;;;;;;46.70;23.87;;;-1.60;99.90;;;;;;5055353;28;20112;-84
2022/01/14 09:02:40;;;;;;;48.50;25.17;;;-1.50;99.90;;;;;;5055892;28;20393;-84
2022/01/14 09:05:07;;;;;;;44.43;24.53;;;-1.40;99.90;;;;;;5056394;28;20047;-84
2022/01/14 09:07:32;;;;;;;44.77;24.17;;;-1.30;99.90;;;;;;5055787;28;20045;-84
2022/01/14 09:09:58;;;;;;;43.37;22.77;;;-1.20;99.90;;;;;;5056310;28;20044;-85
2022/01/14 09:12:23;;;;;;;40.17;22.47;;;-1.10;99.90;;;;;;5056437;28;20098;-84
2022/01/14 09:14:49;;;;;;;39.27;21.73;;;-1.00;99.90;;;;;;5056408;28;20035;-84
2022/01/14 09:17:17;;;;;;;37.57;20.83;;;-0.90;99.90;;;;;;5057057;28;20362;-84
2022/01/14 09:19:43;;;;;;;36.20;20.97;;;-0.80;99.90;;;;;;5056407;28;20033;-83
2022/01/14 09:22:10;;;;;;;36.97;20.50;;;-0.80;99.90;;;;;;5056023;28;20420;-83
2022/01/14 09:24:36;;;;;;;38.37;21.40;;;-0.70;99.90;;;;;;5056258;28;20025;-83
2022/01/14 09:27:02;;;;;;;34.03;19.37;;;-0.50;99.90;;;;;;5057238;28;20032;-84
2022/01/14 09:29:27;;;;;;;33.80;18.73;;;-0.50;99.90;;;;;;5056762;28;20565;-84
2022/01/14 09:31:53;;;;;;;32.30;17.70;;;-0.40;99.90;;;;;;5055930;28;20033;-84
2022/01/14 09:34:18;;;;;;;31.77;17.83;;;-0.30;99.90;;;;;;5054182;28;20135;-84
2022/01/14 09:36:45;;;;;;;33.23;18.20;;;-0.20;99.90;;;;;;5055548;28;20378;-80
2022/01/14 09:39:11;;;;;;;32.43;18.87;;;-0.10;99.90;;;;;;5034078;28;20737;-80
2022/01/14 09:41:37;;;;;;;32.00;18.27;;;-0.10;99.90;;;;;;5049765;28;20385;-83
2022/01/14 09:44:03;;;;;;;30.40;18.10;;;0.00;99.90;;;;;;5052470;28;20519;-83
2022/01/14 09:46:29;;;;;;;32.07;19.40;;;0.10;99.90;;;;;;5052418;28;20040;-83
2022/01/14 09:48:55;;;;;;;33.33;19.03;;;0.20;99.90;;;;;;5050500;28;20059;-84
2022/01/14 09:51:21;;;;;;;29.27;18.00;;;0.30;99.90;;;;;;5050915;28;20076;-83
2022/01/14 09:53:47;;;;;;;27.20;17.73;;;0.40;99.90;;;;;;5052703;28;20048;-83
2022/01/14 09:56:17;;;;;;;27.47;16.10;;;0.50;99.90;;;;;;5052634;28;20107;-83
2022/01/14 09:58:47;;;;;;;31.87;18.73;;;0.50;99.90;;;;;;5052377;28;20035;-84
2022/01/14 10:01:23;;;;;;;29.60;17.70;;;0.70;99.90;;;;;;5051931;28;20032;-83
2022/01/14 10:03:55;;;;;;;30.10;18.53;;;0.80;99.90;;;;;;5052279;28;20037;-83
2022/01/14 10:06:45;;;;;;;28.00;17.07;;;0.80;99.90;;;;;;5052428;28;20017;-83
2022/01/14 10:09:19;;;;;;;27.87;17.37;;;0.90;99.90;;;;;;5052330;28;20048;-84
2022/01/14 10:12:01;;;;;;;32.55;17.98;;;1.00;99.90;;;;;;5046473;28;20420;-80
2022/01/14 10:14:28;;;;;;;30.70;17.77;;;1.10;99.90;;;;;;5030408;28;20096;-80
2022/01/14 10:16:55;;;;;;;30.77;19.27;;;1.30;99.90;;;;;;5040468;28;20025;-85
2022/01/14 10:19:29;;;;;;;30.37;17.90;;;1.60;99.90;;;;;;5052575;28;20025;-85
2022/01/14 10:21:56;;;;;;;31.20;17.88;;;2.00;99.90;;;;;;5049577;28;20373;-85
2022/01/14 10:24:30;;;;;;;30.33;18.37;;;2.30;99.90;;;;;;5039334;28;20102;-85
2022/01/14 10:27:01;;;;;;;33.73;17.53;;;2.50;99.90;;;;;;5033528;28;20022;-85
2022/01/14 10:29:34;;;;;;;35.17;17.93;;;2.60;99.90;;;;;;5033772;28;20032;-86
2022/01/14 10:32:02;;;;;;;33.97;19.37;;;2.70;99.90;;;;;;5032263;28;20033;-86
2022/01/14 10:34:28;;;;;;;42.13;22.53;;;2.60;99.90;;;;;;5032308;28;20448;-86
2022/01/14 10:37:09;;;;;;;41.03;21.73;;;2.60;99.90;;;;;;5032307;28;20401;-86
2022/01/14 10:39:46;;;;;;;37.60;20.20;;;2.60;99.90;;;;;;5039512;28;20052;-86
2022/01/14 10:42:30;;;;;;;37.13;21.07;;;2.60;99.90;;;;;;5054121;28;20321;-75
2022/01/14 10:45:23;;;;;;;30.03;17.73;;;2.60;99.90;;;;;;5029481;28;20025;-85
2022/01/14 10:47:56;;;;;;;30.57;17.97;;;2.70;99.90;;;;;;5042626;28;20485;-85
2022/01/14 10:50:31;;;;;;;28.57;16.50;;;2.80;99.90;;;;;;5047748;28;20052;-85
2022/01/14 10:52:57;;;;;;;34.25;18.80;;;2.80;99.90;;;;;;5048482;28;20031;-85
2022/01/14 10:55:27;;;;;;;32.40;18.23;;;2.90;99.90;;;;;;5047657;28;20078;-85
2022/01/14 10:57:53;;;;;;;32.37;18.30;;;3.00;99.90;;;;;;5048632;28;20056;-85
2022/01/14 11:00:19;;;;;;;32.83;18.40;;;3.10;99.90;;;;;;5048074;28;20060;-85
2022/01/14 11:02:47;;;;;;;31.60;17.83;;;3.20;99.90;;;;;;5037234;28;20051;-85
2022/01/14 11:05:19;;;;;;;29.90;17.97;;;3.40;99.90;;;;;;5046464;28;20083;-80
2022/01/14 11:07:47;;;;;;;29.40;16.47;;;3.50;99.90;;;;;;5027881;28;20125;-81
2022/01/14 11:10:13;;;;;;;27.33;15.47;;;3.70;99.90;;;;;;5028230;28;20017;-82
2022/01/14 11:12:40;;;;;;;25.50;14.77;;;3.80;99.90;;;;;;5031777;28;20032;-81
2022/01/14 11:15:07;;;;;;;24.10;13.70;;;3.80;99.90;;;;;;5037489;28;20040;-77
2022/01/14 11:17:38;;;;;;;27.80;14.47;;;3.80;99.90;;;;;;5033304;28;20029;-77
2022/01/14 11:20:06;;;;;;;21.77;12.83;;;3.80;99.90;;;;;;5032137;28;20498;-87
2022/01/14 11:25:16;;;;;;;19.03;11.60;;;4.00;99.90;;;;;;5039382;28;20047;-85
2022/01/14 11:27:52;;;;;;;19.57;11.37;;;4.20;99.90;;;;;;5046577;28;20025;-85
2022/01/14 11:30:18;;;;;;;18.10;10.33;;;4.20;99.90;;;;;;5028244;28;20032;-84
2022/01/14 11:32:54;;;;;;;16.80;10.80;;;4.20;99.90;;;;;;5028513;28;20038;-85
2022/01/14 11:35:24;;;;;;;16.47;9.50;;;4.30;99.90;;;;;;5028164;28;20488;-85
2022/01/14 11:37:50;;;;;;;14.03;9.30;;;4.30;99.90;;;;;;5040808;28;20505;-85
2022/01/14 11:40:16;;;;;;;16.60;9.73;;;4.40;99.90;;;;;;5051505;28;20025;-86
2022/01/14 11:42:59;;;;;;;15.20;9.60;;;4.40;99.90;;;;;;5052134;28;20029;-77
2022/01/14 11:45:42;;;;;;;14.97;9.30;;;4.50;99.90;;;;;;5037307;28;20026;-76
2022/01/14 11:48:28;;;;;;;17.37;9.90;;;4.50;99.90;;;;;;5052173;28;20020;-77
2022/01/14 11:51:05;;;;;;;15.00;9.20;;;4.60;99.90;;;;;;5034620;28;20538;-82
2022/01/14 11:53:37;;;;;;;17.43;9.83;;;4.60;99.90;;;;;;5041398;28;20029;-82
2022/01/14 11:56:27;;;;;;;14.37;8.80;;;4.70;99.90;;;;;;5046411;28;20025;-81
2022/01/14 11:58:53;;;;;;;15.53;10.43;;;4.80;99.90;;;;;;5046997;28;20033;-81
2022/01/14 12:01:34;;;;;;;15.83;9.47;;;4.90;99.90;;;;;;5047191;28;20087;-81
2022/01/14 12:04:01;;;;;;;19.00;10.53;;;5.00;99.90;;;;;;5048305;28;20546;-77
2022/01/14 12:06:49;;;;;;;15.07;9.20;;;5.10;99.90;;;;;;5046273;28;20086;-85
2022/01/14 12:09:18;;;;;;;15.07;9.13;;;5.20;99.90;;;;;;5042488;28;20035;-85
2022/01/14 12:11:46;;;;;;;15.77;10.00;;;5.30;99.90;;;;;;5044115;28;20029;-84
2022/01/14 12:14:12;;;;;;;18.10;10.30;;;5.50;99.90;;;;;;5045377;28;20055;-84
2022/01/14 12:19:08;;;;;;;18.73;10.07;;;5.70;99.90;;;;;;5038948;28;20021;-83
2022/01/14 12:21:51;;;;;;;20.47;11.63;;;5.90;99.90;;;;;;5047145;28;20033;-82
2022/01/14 12:24:27;;;;;;;21.07;12.60;;;6.10;99.90;;;;;;5050878;28;20412;-82
2022/01/14 12:26:52;;;;;;;25.40;13.43;;;6.10;99.90;;;;;;5050782;28;20028;-83
2022/01/14 12:29:20;;;;;;;26.53;14.23;;;6.20;99.90;;;;;;5050342;28;20341;-82
2022/01/14 12:32:05;;;;;;;20.80;12.70;;;6.30;99.90;;;;;;5051994;28;20043;-83
2022/01/14 12:34:32;;;;;;;19.88;12.27;;;6.30;99.90;;;;;;5033059;28;20532;-83
2022/01/14 12:36:58;;;;;;;20.43;12.03;;;6.40;99.90;;;;;;5043614;28;20111;-74
2022/01/14 12:39:24;;;;;;;20.70;11.37;;;6.50;99.90;;;;;;5052087;28;20104;-83
2022/01/14 12:41:53;;;;;;;27.63;11.43;;;6.50;99.90;;;;;;5046502;28;20025;-84
2022/01/14 12:44:23;;;;;;;18.87;10.13;;;6.60;99.90;;;;;;5047403;28;20100;-84
2022/01/14 12:47:08;;;;;;;16.17;9.97;;;6.70;99.90;;;;;;5047918;28;20021;-84
2022/01/14 12:49:35;;;;;;;18.57;9.50;;;6.90;99.90;;;;;;5045447;28;20604;-84
2022/01/14 12:52:09;;;;;;;16.40;8.97;;;6.90;99.90;;;;;;5042132;28;20057;-84
2022/01/14 12:54:43;;;;;;;13.60;8.47;;;7.00;99.90;;;;;;5044464;28;20029;-84
2022/01/14 12:57:14;;;;;;;15.38;9.05;;;7.10;99.90;;;;;;5045898;28;20033;-84
2022/01/14 12:59:45;;;;;;;15.40;8.77;;;7.10;99.90;;;;;;5042843;28;20033;-81
2022/01/14 13:02:21;;;;;;;12.63;8.87;;;7.20;99.90;;;;;;5057448;28;20032;-82